Time;durP1;ratioP1;P1;durP2;ratioP2;P2;SDS_P1;SDS_P2;PMS_P1;PMS_P2;Temp;Humidity;BMP_temperature;BMP_pressure;BME280_temperature;BME280_humidity;BME280_pressure;Samples;Min_cycle;Max_cycle;Signal;HPM_P1;HPM_P2
2024/02/03 00:00:19;;;;;;;11.20;4.00;;;;;;;;;;5024711;28;20029;-57
2024/02/03 00:02:44;;;;;;;10.00;3.33;;;;;;;;;;5026218;28;20358;-57
2024/02/03 00:05:09;;;;;;;8.82;3.58;;;;;;;;;;5030723;28;20028;-56
2024/02/03 00:07:34;;;;;;;9.18;3.70;;;;;;;;;;5028358;28;20378;-57
2024/02/03 00:09:59;;;;;;;10.43;3.60;;;;;;;;;;5026409;28;20029;-57
2024/02/03 00:12:28;;;;;;;7.57;3.42;;;;;;;;;;5024411;28;20072;-58
2024/02/03 00:14:53;;;;;;;9.50;4.13;;;;;;;;;;5025712;28;20032;-57
2024/02/03 00:17:18;;;;;;;9.77;3.63;;;;;;;;;;5027060;28;20554;-56
2024/02/03 00:19:43;;;;;;;10.18;4.18;;;;;;;;;;5021311;28;20029;-57
2024/02/03 00:22:09;;;;;;;8.87;4.00;;;;;;;;;;5027916;28;20037;-56
2024/02/03 00:24:34;;;;;;;9.48;3.78;;;;;;;;;;5030998;28;20025;-56
2024/02/03 00:27:00;;;;;;;8.30;4.03;;;;;;;;;;5024468;28;20080;-57
2024/02/03 00:29:25;;;;;;;9.13;4.05;;;;;;;;;;5027207;28;20042;-56
2024/02/03 00:31:50;;;;;;;11.07;4.53;;;;;;;;;;5022371;28;20017;-57
2024/02/03 00:34:15;;;;;;;10.63;4.07;;;;;;;;;;5020041;28;20079;-57
2024/02/03 00:36:40;;;;;;;10.90;3.80;;;;;;;;;;5030740;28;20477;-57
2024/02/03 00:39:06;;;;;;;8.70;3.92;;;;;;;;;;5028963;28;20034;-56
2024/02/03 00:41:31;;;;;;;11.68;3.80;;;;;;;;;;5021222;28;20029;-56
2024/02/03 00:43:56;;;;;;;10.57;4.10;;;;;;;;;;5021561;28;20050;-57
2024/02/03 00:46:21;;;;;;;9.93;3.83;;;;;;;;;;5012014;28;20018;-57
2024/02/03 00:48:47;;;;;;;8.35;3.55;;;;;;;;;;5025303;28;20104;-57
2024/02/03 00:51:12;;;;;;;7.87;3.83;;;;;;;;;;5030143;28;20091;-56
2024/02/03 00:53:38;;;;;;;9.33;3.97;;;;;;;;;;5024113;28;20626;-57
2024/02/03 00:56:03;;;;;;;10.57;4.07;;;;;;;;;;5028588;28;20100;-57
2024/02/03 00:58:28;;;;;;;10.50;4.47;;;;;;;;;;5033484;28;20037;-57
2024/02/03 01:00:53;;;;;;;8.07;4.18;;;;;;;;;;5031855;28;20479;-57
2024/02/03 01:03:19;;;;;;;8.93;4.13;;;;;;;;;;5034000;28;20014;-56
2024/02/03 01:05:44;;;;;;;10.13;4.40;;;;;;;;;;5017374;28;20080;-56
2024/02/03 01:08:09;;;;;;;9.75;3.97;;;;;;;;;;5033763;28;20083;-57
2024/02/03 01:10:35;;;;;;;9.32;4.25;;;;;;;;;;5021336;28;20095;-57
2024/02/03 01:13:00;;;;;;;10.23;4.18;;;;;;;;;;5028126;28;20021;-57
2024/02/03 01:15:25;;;;;;;9.60;4.15;;;;;;;;;;5029802;28;20029;-58
2024/02/03 01:17:50;;;;;;;8.27;4.17;;;;;;;;;;5027057;28;20065;-58
2024/02/03 01:20:16;;;;;;;9.63;4.43;;;;;;;;;;5033673;28;20037;-56
2024/02/03 01:22:41;;;;;;;9.20;4.53;;;;;;;;;;5023536;28;20460;-57
2024/02/03 01:25:06;;;;;;;9.70;4.10;;;;;;;;;;5013194;28;20026;-57
2024/02/03 01:27:31;;;;;;;10.35;4.10;;;;;;;;;;5028228;28;20021;-57
2024/02/03 01:29:56;;;;;;;9.73;4.53;;;;;;;;;;5032506;28;20032;-56
2024/02/03 01:32:22;;;;;;;9.57;4.00;;;;;;;;;;5032130;28;20029;-56
2024/02/03 01:34:47;;;;;;;10.93;4.47;;;;;;;;;;5030621;28;20535;-57
2024/02/03 01:37:12;;;;;;;10.30;4.30;;;;;;;;;;5020685;28;20520;-57
2024/02/03 01:39:37;;;;;;;12.93;4.68;;;;;;;;;;5025519;28;19948;-57
2024/02/03 01:42:02;;;;;;;8.80;4.13;;;;;;;;;;5020962;28;20025;-57
2024/02/03 01:44:29;;;;;;;9.03;3.83;;;;;;;;;;5030247;28;20053;-57
2024/02/03 01:46:54;;;;;;;9.23;4.38;;;;;;;;;;5019675;28;20063;-57
2024/02/03 01:49:19;;;;;;;8.25;3.72;;;;;;;;;;5024650;28;20039;-58
2024/02/03 01:51:45;;;;;;;9.83;4.13;;;;;;;;;;5023699;28;20049;-57
2024/02/03 01:54:10;;;;;;;8.67;4.20;;;;;;;;;;5030778;28;20025;-57
2024/02/03 01:56:37;;;;;;;10.53;4.03;;;;;;;;;;5031471;28;20025;-58
2024/02/03 01:59:03;;;;;;;8.88;4.32;;;;;;;;;;5033377;28;20499;-59
2024/02/03 02:01:28;;;;;;;8.45;3.78;;;;;;;;;;5016086;28;23490;-57
2024/02/03 02:03:53;;;;;;;9.70;3.78;;;;;;;;;;5016127;28;20033;-58
2024/02/03 02:06:18;;;;;;;9.43;3.97;;;;;;;;;;5024741;28;20398;-57
2024/02/03 02:08:43;;;;;;;8.30;3.97;;;;;;;;;;5020378;28;20471;-56
2024/02/03 02:11:08;;;;;;;8.68;3.65;;;;;;;;;;5040403;28;20045;-57
2024/02/03 02:13:34;;;;;;;9.97;3.93;;;;;;;;;;5039277;28;20117;-58
2024/02/03 02:15:59;;;;;;;10.37;4.70;;;;;;;;;;5050323;28;20028;-57
2024/02/03 02:18:25;;;;;;;10.10;4.63;;;;;;;;;;5036732;28;20045;-56
2024/02/03 02:20:50;;;;;;;8.35;3.80;;;;;;;;;;5041593;28;20021;-57
2024/02/03 02:23:15;;;;;;;8.43;3.77;;;;;;;;;;5044889;28;20556;-58
2024/02/03 02:25:40;;;;;;;9.27;4.15;;;;;;;;;;5032022;28;20061;-57
2024/02/03 02:28:05;;;;;;;8.18;3.88;;;;;;;;;;5028350;28;20485;-57
2024/02/03 02:30:30;;;;;;;7.63;3.60;;;;;;;;;;5032739;28;20037;-57
2024/02/03 02:32:55;;;;;;;9.25;3.97;;;;;;;;;;5032361;28;20029;-56
2024/02/03 02:35:21;;;;;;;9.00;3.80;;;;;;;;;;5021995;28;20501;-57
2024/02/03 02:37:46;;;;;;;8.80;3.70;;;;;;;;;;5029666;28;20116;-57
2024/02/03 02:40:12;;;;;;;9.02;4.10;;;;;;;;;;5031254;28;20022;-57
2024/02/03 02:42:37;;;;;;;8.10;3.75;;;;;;;;;;5032152;28;20025;-56
2024/02/03 02:45:03;;;;;;;8.57;3.70;;;;;;;;;;5038109;28;20156;-56
2024/02/03 02:47:28;;;;;;;8.57;3.55;;;;;;;;;;5030000;28;20485;-57
2024/02/03 02:49:53;;;;;;;8.37;3.20;;;;;;;;;;5022821;28;20394;-56
2024/02/03 02:52:19;;;;;;;8.00;3.60;;;;;;;;;;5031571;28;20025;-56
2024/02/03 02:54:44;;;;;;;6.85;3.40;;;;;;;;;;5027298;28;20525;-56
2024/02/03 02:57:09;;;;;;;9.32;3.70;;;;;;;;;;5032046;28;20124;-56
2024/02/03 02:59:34;;;;;;;8.63;3.75;;;;;;;;;;5029053;28;20033;-57
2024/02/03 03:01:59;;;;;;;7.80;3.67;;;;;;;;;;5021073;28;20049;-57
2024/02/03 03:04:25;;;;;;;6.80;3.30;;;;;;;;;;5032309;28;20022;-56
2024/02/03 03:06:50;;;;;;;7.68;3.67;;;;;;;;;;5029967;28;20040;-57
2024/02/03 03:09:16;;;;;;;7.07;3.23;;;;;;;;;;5027769;28;20014;-57
2024/02/03 03:11:41;;;;;;;6.70;3.13;;;;;;;;;;5031242;28;20022;-57
2024/02/03 03:14:06;;;;;;;7.63;3.35;;;;;;;;;;5030853;28;20108;-57
2024/02/03 03:16:31;;;;;;;6.53;3.10;;;;;;;;;;5013216;28;20026;-56
2024/02/03 03:18:56;;;;;;;7.15;3.17;;;;;;;;;;5020673;28;20033;-58
2024/02/03 03:21:22;;;;;;;7.60;2.95;;;;;;;;;;5012532;28;20406;-57
2024/02/03 03:23:47;;;;;;;6.63;3.00;;;;;;;;;;5019861;28;20014;-57
2024/02/03 03:26:12;;;;;;;6.80;2.92;;;;;;;;;;5029589;28;20029;-57
2024/02/03 03:28:37;;;;;;;8.23;3.30;;;;;;;;;;5030021;28;20116;-57
2024/02/03 03:31:03;;;;;;;6.22;2.83;;;;;;;;;;5030513;28;20473;-57
2024/02/03 03:33:28;;;;;;;6.83;2.80;;;;;;;;;;5031395;28;20025;-58
2024/02/03 03:35:53;;;;;;;6.18;3.00;;;;;;;;;;5028951;28;20108;-58
2024/02/03 03:38:18;;;;;;;6.28;3.03;;;;;;;;;;5012290;28;20045;-58
2024/02/03 03:40:43;;;;;;;6.83;2.70;;;;;;;;;;5021111;28;20101;-56
2024/02/03 03:43:09;;;;;;;6.87;2.80;;;;;;;;;;5029069;28;20033;-57
2024/02/03 03:45:34;;;;;;;6.65;2.85;;;;;;;;;;5029474;28;20083;-56
2024/02/03 03:47:59;;;;;;;6.23;2.50;;;;;;;;;;5012873;28;20080;-57
2024/02/03 03:50:25;;;;;;;6.93;2.72;;;;;;;;;;5016656;28;20025;-58
2024/02/03 03:52:50;;;;;;;5.85;2.88;;;;;;;;;;5029376;28;20104;-57
2024/02/03 03:55:16;;;;;;;7.25;3.13;;;;;;;;;;5028074;28;20033;-57
2024/02/03 03:57:42;;;;;;;6.43;2.47;;;;;;;;;;5030886;28;20022;-56
2024/02/03 04:00:10;;;;;;;7.03;3.00;;;;;;;;;;5028123;28;20025;-56
2024/02/03 04:02:35;;;;;;;6.55;2.80;;;;;;;;;;5029232;28;20468;-56
2024/02/03 04:05:00;;;;;;;6.60;2.73;;;;;;;;;;5023492;28;20067;-57
2024/02/03 04:07:25;;;;;;;7.30;2.90;;;;;;;;;;5011234;28;20491;-57
2024/02/03 04:09:50;;;;;;;5.80;2.30;;;;;;;;;;5021542;28;20470;-57
2024/02/03 04:12:16;;;;;;;6.90;2.78;;;;;;;;;;5027867;28;20021;-57
2024/02/03 04:14:46;;;;;;;5.88;2.53;;;;;;;;;;5029582;28;20053;-56
2024/02/03 04:17:11;;;;;;;6.50;3.00;;;;;;;;;;5029824;28;20059;-57
2024/02/03 04:19:36;;;;;;;5.88;2.65;;;;;;;;;;5030555;28;20036;-57
2024/02/03 04:22:01;;;;;;;5.90;2.67;;;;;;;;;;5024281;28;20034;-57
2024/02/03 04:24:26;;;;;;;6.40;2.70;;;;;;;;;;5015549;28;20478;-56
2024/02/03 04:26:51;;;;;;;5.60;2.67;;;;;;;;;;5031161;28;20052;-57
2024/02/03 04:29:17;;;;;;;7.32;3.10;;;;;;;;;;5033529;28;20036;-56
2024/02/03 04:31:42;;;;;;;6.27;2.83;;;;;;;;;;5023370;28;20105;-58
2024/02/03 04:34:08;;;;;;;6.10;2.67;;;;;;;;;;5021807;28;20021;-57
2024/02/03 04:36:33;;;;;;;5.93;2.85;;;;;;;;;;5034001;28;20033;-57
2024/02/03 04:38:58;;;;;;;6.53;2.72;;;;;;;;;;5032513;28;20397;-58
2024/02/03 04:41:24;;;;;;;6.88;2.78;;;;;;;;;;5020189;28;20025;-57
2024/02/03 04:43:49;;;;;;;5.80;2.85;;;;;;;;;;5022896;28;20057;-57
2024/02/03 04:46:14;;;;;;;5.95;2.85;;;;;;;;;;5030741;28;20036;-57
2024/02/03 04:48:42;;;;;;;6.43;2.85;;;;;;;;;;5031970;28;20022;-57
2024/02/03 04:51:07;;;;;;;5.85;2.55;;;;;;;;;;5033744;28;20025;-56
2024/02/03 04:53:32;;;;;;;7.82;2.85;;;;;;;;;;5032047;28;20029;-59
2024/02/03 04:55:57;;;;;;;5.05;2.30;;;;;;;;;;5028087;28;20021;-57
2024/02/03 04:58:23;;;;;;;5.90;2.70;;;;;;;;;;5014441;28;20041;-56
2024/02/03 05:00:48;;;;;;;5.00;2.15;;;;;;;;;;5013355;28;20395;-57
2024/02/03 05:03:13;;;;;;;5.63;2.70;;;;;;;;;;5018519;28;20037;-57
2024/02/03 05:05:38;;;;;;;6.33;2.70;;;;;;;;;;5032570;28;20030;-57
2024/02/03 05:08:03;;;;;;;5.50;2.20;;;;;;;;;;5039447;28;20090;-57
2024/02/03 05:10:28;;;;;;;7.33;2.53;;;;;;;;;;5041683;28;20345;-57
2024/02/03 05:12:54;;;;;;;7.38;3.40;;;;;;;;;;5039378;28;20493;-56
2024/02/03 05:15:19;;;;;;;6.57;2.80;;;;;;;;;;5041239;28;20025;-61
2024/02/03 05:17:44;;;;;;;5.60;2.57;;;;;;;;;;5028870;28;20125;-57
2024/02/03 05:20:11;;;;;;;6.77;2.90;;;;;;;;;;5038643;28;20033;-58
2024/02/03 05:22:36;;;;;;;6.28;2.60;;;;;;;;;;5027019;28;20105;-57
2024/02/03 05:25:02;;;;;;;5.95;2.70;;;;;;;;;;5025367;28;20115;-57
2024/02/03 05:27:27;;;;;;;6.78;2.55;;;;;;;;;;5023070;28;20030;-57
2024/02/03 05:29:52;;;;;;;5.32;2.30;;;;;;;;;;5016138;28;20018;-57
2024/02/03 05:32:17;;;;;;;7.38;3.10;;;;;;;;;;5020588;28;20030;-56
2024/02/03 05:34:43;;;;;;;5.97;2.53;;;;;;;;;;5027910;28;20079;-58
2024/02/03 05:37:09;;;;;;;6.47;2.70;;;;;;;;;;5030334;28;20057;-57
2024/02/03 05:39:34;;;;;;;;;;;;;;;;;;5032512;28;20044;-60
2024/02/03 05:42:00;;;;;;;6.53;2.83;;;;;;;;;;5032057;28;19909;-57
2024/02/03 05:44:26;;;;;;;5.67;2.70;;;;;;;;;;5032475;28;20017;-57
2024/02/03 05:46:51;;;;;;;7.05;2.60;;;;;;;;;;5029212;28;20381;-56
2024/02/03 05:49:16;;;;;;;6.22;2.47;;;;;;;;;;5030188;28;20033;-57
2024/02/03 05:51:42;;;;;;;5.68;2.33;;;;;;;;;;5032002;28;20033;-58
2024/02/03 05:54:07;;;;;;;4.73;2.10;;;;;;;;;;5031364;28;20028;-56
2024/02/03 05:56:36;;;;;;;5.38;2.38;;;;;;;;;;5016164;28;20690;-57
2024/02/03 05:59:01;;;;;;;6.10;2.83;;;;;;;;;;5023248;28;20033;-58
2024/02/03 06:01:26;;;;;;;5.97;2.67;;;;;;;;;;5029787;28;20017;-56
2024/02/03 06:03:51;;;;;;;5.43;2.25;;;;;;;;;;5023459;28;20010;-58
2024/02/03 06:06:16;;;;;;;6.32;2.55;;;;;;;;;;5032306;28;20033;-57
2024/02/03 06:08:41;;;;;;;5.32;2.20;;;;;;;;;;5031139;28;20056;-57
2024/02/03 06:11:06;;;;;;;6.27;2.50;;;;;;;;;;5032826;28;20022;-58
2024/02/03 06:13:32;;;;;;;5.80;2.50;;;;;;;;;;5030410;28;20021;-57
2024/02/03 06:15:57;;;;;;;5.47;2.70;;;;;;;;;;5030813;28;20040;-57
2024/02/03 06:18:22;;;;;;;6.20;2.70;;;;;;;;;;5017479;28;20034;-57
2024/02/03 06:20:47;;;;;;;5.88;2.25;;;;;;;;;;5020761;28;20527;-56
2024/02/03 06:23:13;;;;;;;5.83;2.40;;;;;;;;;;5031373;28;20166;-56
2024/02/03 06:25:38;;;;;;;5.22;2.30;;;;;;;;;;5032043;28;20812;-58
2024/02/03 06:28:03;;;;;;;5.85;2.47;;;;;;;;;;5017299;28;20024;-56
2024/02/03 06:30:28;;;;;;;5.40;2.33;;;;;;;;;;5031388;28;20026;-57
2024/02/03 06:32:53;;;;;;;5.10;2.17;;;;;;;;;;5030090;28;20095;-57
2024/02/03 06:35:18;;;;;;;6.23;2.53;;;;;;;;;;5029001;28;20037;-57
2024/02/03 06:37:44;;;;;;;6.47;2.60;;;;;;;;;;5026654;28;20074;-57
2024/02/03 06:40:09;;;;;;;5.03;2.50;;;;;;;;;;5025765;28;20095;-56
2024/02/03 06:42:34;;;;;;;5.13;2.13;;;;;;;;;;5025545;28;20498;-57
2024/02/03 06:44:59;;;;;;;5.55;2.20;;;;;;;;;;5031182;28;20924;-57
2024/02/03 06:47:24;;;;;;;6.05;2.55;;;;;;;;;;5031993;28;20017;-57
2024/02/03 06:49:50;;;;;;;5.78;2.40;;;;;;;;;;5031742;28;20072;-58
2024/02/03 06:52:16;;;;;;;5.28;2.20;;;;;;;;;;5030608;28;20033;-56
2024/02/03 06:54:41;;;;;;;4.90;2.27;;;;;;;;;;5022208;28;20015;-56
2024/02/03 06:57:06;;;;;;;6.28;2.28;;;;;;;;;;5026539;28;20389;-56
2024/02/03 06:59:31;;;;;;;5.50;2.33;;;;;;;;;;5027224;28;20045;-57
2024/02/03 07:01:56;;;;;;;5.75;2.13;;;;;;;;;;5024293;28;20057;-56
2024/02/03 07:04:21;;;;;;;4.88;1.70;;;;;;;;;;5018584;28;20517;-56
2024/02/03 07:06:46;;;;;;;5.72;2.50;;;;;;;;;;5027350;28;20034;-57
2024/02/03 07:09:12;;;;;;;6.20;2.37;;;;;;;;;;5030364;28;20030;-56
2024/02/03 07:11:37;;;;;;;4.93;2.20;;;;;;;;;;5031474;28;20032;-57
2024/02/03 07:14:02;;;;;;;5.50;1.98;;;;;;;;;;5029703;28;20029;-58
2024/02/03 07:16:27;;;;;;;4.80;1.88;;;;;;;;;;5029705;28;20028;-57
2024/02/03 07:18:52;;;;;;;5.57;2.17;;;;;;;;;;5031297;28;20103;-57
2024/02/03 07:21:18;;;;;;;4.70;2.10;;;;;;;;;;5029099;28;20032;-56
2024/02/03 07:23:43;;;;;;;6.50;2.03;;;;;;;;;;5023651;28;20029;-57
2024/02/03 07:26:08;;;;;;;5.00;2.20;;;;;;;;;;5032360;28;20473;-56
2024/02/03 07:28:33;;;;;;;5.87;2.40;;;;;;;;;;5031478;28;20038;-57
2024/02/03 07:30:58;;;;;;;6.40;2.20;;;;;;;;;;5030665;28;20024;-58
2024/02/03 07:33:23;;;;;;;5.30;2.13;;;;;;;;;;5027423;28;20482;-56
2024/02/03 07:35:49;;;;;;;5.53;2.10;;;;;;;;;;5028213;28;20021;-57
2024/02/03 07:38:14;;;;;;;5.43;2.00;;;;;;;;;;5032780;28;20072;-57
2024/02/03 07:40:39;;;;;;;4.68;1.83;;;;;;;;;;5039006;28;20040;-58
2024/02/03 07:43:04;;;;;;;5.03;1.77;;;;;;;;;;5034018;28;20481;-58
2024/02/03 07:45:29;;;;;;;6.07;1.90;;;;;;;;;;5028545;28;20033;-57
2024/02/03 07:47:54;;;;;;;4.83;1.80;;;;;;;;;;5021216;28;20028;-57
2024/02/03 07:50:21;;;;;;;4.72;1.50;;;;;;;;;;5029283;28;20471;-57
2024/02/03 07:52:46;;;;;;;4.80;1.77;;;;;;;;;;5026181;28;20100;-56
2024/02/03 07:55:11;;;;;;;4.83;1.87;;;;;;;;;;5043058;28;20047;-56
2024/02/03 07:57:36;;;;;;;4.03;1.60;;;;;;;;;;5042140;28;21653;-57
2024/02/03 08:00:02;;;;;;;4.72;1.60;;;;;;;;;;5020083;28;20395;-56
2024/02/03 08:02:27;;;;;;;4.10;1.60;;;;;;;;;;5035135;28;20523;-57
2024/02/03 08:04:53;;;;;;;6.30;1.92;;;;;;;;;;5024802;28;20018;-58
2024/02/03 08:07:18;;;;;;;;;;;;;;;;;;5025710;28;20029;-57
2024/02/03 08:09:43;;;;;;;4.53;1.63;;;;;;;;;;5020370;28;20013;-58
2024/02/03 08:12:09;;;;;;;6.32;1.70;;;;;;;;;;5027287;28;20444;-57
2024/02/03 08:14:34;;;;;;;4.63;1.37;;;;;;;;;;5026205;28;20018;-57
2024/02/03 08:16:59;;;;;;;3.50;1.30;;;;;;;;;;5022419;28;20540;-57
2024/02/03 08:19:24;;;;;;;3.55;1.42;;;;;;;;;;5022745;28;20040;-57
2024/02/03 08:21:49;;;;;;;3.58;1.50;;;;;;;;;;5028946;28;20029;-58
2024/02/03 08:24:14;;;;;;;2.90;1.03;;;;;;;;;;5023808;28;20029;-57
2024/02/03 08:26:40;;;;;;;5.60;1.40;;;;;;;;;;5026140;28;20033;-58
2024/02/03 08:29:05;;;;;;;3.70;1.30;;;;;;;;;;5026645;28;20076;-58
2024/02/03 08:31:30;;;;;;;4.37;1.30;;;;;;;;;;5027050;28;20021;-57
2024/02/03 08:33:57;;;;;;;6.13;1.60;;;;;;;;;;5022808;28;20367;-57
2024/02/03 08:36:22;;;;;;;4.68;1.35;;;;;;;;;;5026327;28;20021;-58
2024/02/03 08:38:48;;;;;;;4.97;1.20;;;;;;;;;;5029894;28;20025;-57
2024/02/03 08:41:13;;;;;;;4.23;1.20;;;;;;;;;;5030384;28;20045;-57
2024/02/03 08:43:38;;;;;;;3.73;1.23;;;;;;;;;;5030620;28;20025;-57
2024/02/03 08:46:03;;;;;;;4.05;1.10;;;;;;;;;;5029509;28;20032;-57
2024/02/03 08:48:28;;;;;;;2.93;1.20;;;;;;;;;;5024510;28;20025;-56
2024/02/03 08:50:53;;;;;;;5.38;1.23;;;;;;;;;;5028547;28;20075;-56
2024/02/03 08:53:18;;;;;;;3.10;1.10;;;;;;;;;;5024393;28;20032;-56
2024/02/03 08:55:44;;;;;;;3.13;1.10;;;;;;;;;;5030422;28;20032;-56
2024/02/03 08:58:09;;;;;;;3.33;1.13;;;;;;;;;;5030368;28;20044;-56
2024/02/03 09:00:34;;;;;;;4.55;1.45;;;;;;;;;;5030309;28;20424;-56
2024/02/03 09:02:59;;;;;;;3.40;1.35;;;;;;;;;;5029454;28;20616;-55
2024/02/03 09:05:24;;;;;;;3.53;1.50;;;;;;;;;;5027786;28;20079;-55
2024/02/03 09:07:52;;;;;;;5.07;1.10;;;;;;;;;;5029656;28;20017;-57
2024/02/03 09:10:17;;;;;;;3.40;1.20;;;;;;;;;;5023592;28;20065;-57
2024/02/03 09:12:42;;;;;;;6.25;2.40;;;;;;;;;;5032009;28;20029;-58
2024/02/03 09:15:07;;;;;;;5.95;2.10;;;;;;;;;;5034977;28;20032;-57
2024/02/03 09:17:33;;;;;;;6.22;1.02;;;;;;;;;;5032920;28;20037;-57
2024/02/03 09:19:58;;;;;;;3.27;0.97;;;;;;;;;;5034064;28;20162;-56
2024/02/03 09:22:23;;;;;;;4.15;1.00;;;;;;;;;;5034093;28;20022;-56
2024/02/03 09:24:48;;;;;;;2.60;0.88;;;;;;;;;;5032490;28;20037;-57
2024/02/03 09:27:13;;;;;;;3.10;1.03;;;;;;;;;;5034013;28;20052;-56
2024/02/03 09:29:40;;;;;;;2.80;1.10;;;;;;;;;;5034303;28;20109;-56
2024/02/03 09:32:07;;;;;;;2.60;0.90;;;;;;;;;;5032545;28;20048;-55
2024/02/03 09:34:32;;;;;;;3.85;1.15;;;;;;;;;;5029481;28;20018;-56
2024/02/03 09:36:57;;;;;;;3.30;1.02;;;;;;;;;;5021162;28;20051;-56
2024/02/03 09:39:23;;;;;;;2.90;1.00;;;;;;;;;;5033218;28;20056;-57
2024/02/03 09:41:48;;;;;;;2.80;1.00;;;;;;;;;;5022686;28;20033;-57
2024/02/03 09:44:13;;;;;;;4.07;1.10;;;;;;;;;;5033870;28;20014;-57
2024/02/03 09:46:39;;;;;;;2.30;0.80;;;;;;;;;;5030071;28;20029;-56
2024/02/03 09:49:04;;;;;;;3.38;0.90;;;;;;;;;;5033878;28;20513;-57
2024/02/03 09:51:30;;;;;;;3.90;1.00;;;;;;;;;;5034615;28;20080;-56
2024/02/03 09:53:55;;;;;;;3.95;1.17;;;;;;;;;;5033500;28;20102;-56
2024/02/03 09:56:20;;;;;;;3.10;1.08;;;;;;;;;;5032245;28;20018;-57
2024/02/03 09:58:46;;;;;;;3.88;1.20;;;;;;;;;;5027341;28;20109;-55
2024/02/03 10:01:12;;;;;;;2.47;0.90;;;;;;;;;;5025140;28;20017;-56
2024/02/03 10:03:37;;;;;;;6.57;1.00;;;;;;;;;;5033379;28;20476;-55
2024/02/03 10:06:03;;;;;;;3.03;1.10;;;;;;;;;;5031949;28;20097;-55
2024/02/03 10:08:28;;;;;;;3.10;0.90;;;;;;;;;;5033797;28;20070;-57
2024/02/03 10:10:54;;;;;;;2.42;0.73;;;;;;;;;;5033128;28;20026;-56
2024/02/03 10:13:19;;;;;;;2.80;1.02;;;;;;;;;;5029810;28;20410;-57
2024/02/03 10:15:44;;;;;;;2.90;1.10;;;;;;;;;;5026939;28;20052;-56
2024/02/03 10:18:09;;;;;;;2.87;1.00;;;;;;;;;;5031798;28;20955;-57
2024/02/03 10:20:35;;;;;;;3.65;1.00;;;;;;;;;;5020863;28;20033;-56
2024/02/03 10:23:00;;;;;;;4.03;1.02;;;;;;;;;;5029136;28;20021;-57
2024/02/03 10:25:28;;;;;;;3.28;1.02;;;;;;;;;;5032698;28;20037;-57
2024/02/03 10:28:00;;;;;;;3.08;1.10;;;;;;;;;;5034323;28;20029;-56
2024/02/03 10:30:27;;;;;;;3.80;0.80;;;;;;;;;;5034839;28;20113;-56
2024/02/03 10:32:52;;;;;;;2.47;0.90;;;;;;;;;;5034749;28;20018;-56
2024/02/03 10:35:18;;;;;;;2.95;0.88;;;;;;;;;;5032843;28;20032;-57
2024/02/03 10:37:48;;;;;;;2.40;0.80;;;;;;;;;;5033126;28;20116;-56
2024/02/03 10:40:13;;;;;;;2.95;0.90;;;;;;;;;;5029978;28;20033;-56
2024/02/03 10:42:39;;;;;;;2.63;0.83;;;;;;;;;;5032455;28;20021;-56
2024/02/03 10:45:08;;;;;;;2.92;0.93;;;;;;;;;;5033021;28;20021;-56
2024/02/03 10:47:37;;;;;;;3.50;1.02;;;;;;;;;;5025181;28;20037;-56
2024/02/03 10:50:04;;;;;;;3.08;0.80;;;;;;;;;;5032398;28;20036;-56
2024/02/03 10:52:30;;;;;;;3.45;0.80;;;;;;;;;;5031116;28;20056;-56
2024/02/03 10:54:56;;;;;;;2.38;0.70;;;;;;;;;;5041659;28;20021;-56
2024/02/03 10:57:23;;;;;;;2.63;0.80;;;;;;;;;;5039666;28;20029;-57
2024/02/03 10:59:48;;;;;;;2.25;0.80;;;;;;;;;;5026021;28;20037;-56
2024/02/03 11:02:22;;;;;;;3.43;0.90;;;;;;;;;;5023396;28;20030;-56
2024/02/03 11:04:48;;;;;;;3.28;0.77;;;;;;;;;;5023348;28;20029;-56
2024/02/03 11:07:20;;;;;;;3.00;0.70;;;;;;;;;;5023071;28;20081;-56
2024/02/03 11:09:49;;;;;;;2.88;0.90;;;;;;;;;;5019242;28;20017;-56
2024/02/03 11:12:15;;;;;;;2.05;0.80;;;;;;;;;;5031145;28;20021;-56
2024/02/03 11:14:42;;;;;;;1.95;0.60;;;;;;;;;;5028735;28;20029;-55
2024/02/03 11:17:07;;;;;;;1.85;0.70;;;;;;;;;;5025539;28;20021;-57
2024/02/03 11:19:33;;;;;;;2.60;0.70;;;;;;;;;;5027736;28;20044;-57
2024/02/03 11:21:59;;;;;;;2.88;1.25;;;;;;;;;;5025401;28;20022;-57
2024/02/03 11:24:25;;;;;;;2.63;0.90;;;;;;;;;;5028390;28;20060;-57
2024/02/03 11:27:09;;;;;;;2.25;0.68;;;;;;;;;;5020058;28;20474;-57
2024/02/03 11:29:35;;;;;;;2.95;0.80;;;;;;;;;;5021116;28;20017;-57
2024/02/03 11:32:03;;;;;;;2.22;0.70;;;;;;;;;;5019096;28;20025;-56
2024/02/03 11:34:29;;;;;;;1.92;0.65;;;;;;;;;;5021906;28;20033;-56
2024/02/03 11:36:55;;;;;;;1.50;0.60;;;;;;;;;;5025802;28;20102;-56
2024/02/03 11:39:26;;;;;;;2.28;0.70;;;;;;;;;;5028258;28;20900;-57
2024/02/03 11:41:51;;;;;;;1.85;0.70;;;;;;;;;;5030209;28;20025;-57
2024/02/03 11:44:18;;;;;;;2.00;0.65;;;;;;;;;;5031098;28;20025;-55
2024/02/03 11:46:44;;;;;;;8.10;2.20;;;;;;;;;;5028586;28;20104;-57
2024/02/03 11:49:09;;;;;;;5.45;1.70;;;;;;;;;;5029958;28;20108;-56
2024/02/03 11:51:34;;;;;;;8.57;2.83;;;;;;;;;;5027770;28;20535;-56
2024/02/03 11:54:03;;;;;;;3.83;0.80;;;;;;;;;;5029817;28;20389;-56
2024/02/03 11:56:28;;;;;;;3.75;1.17;;;;;;;;;;5030165;28;20117;-57
2024/02/03 11:58:54;;;;;;;3.67;1.43;;;;;;;;;;5030912;28;20105;-57
2024/02/03 12:01:19;;;;;;;2.65;0.80;;;;;;;;;;5029353;28;20026;-55
2024/02/03 12:03:44;;;;;;;2.50;1.00;;;;;;;;;;5031484;28;20080;-56
2024/02/03 12:06:10;;;;;;;1.23;0.60;;;;;;;;;;5031817;28;20104;-56
2024/02/03 12:08:35;;;;;;;2.13;0.60;;;;;;;;;;5023146;28;20069;-56
2024/02/03 12:11:00;;;;;;;2.80;0.68;;;;;;;;;;5027719;28;20018;-56
2024/02/03 12:13:26;;;;;;;2.13;0.60;;;;;;;;;;5030656;28;20022;-56
2024/02/03 12:15:52;;;;;;;2.77;0.67;;;;;;;;;;5027988;28;20075;-57
2024/02/03 12:18:18;;;;;;;;;;;;;;;;;;5030200;28;20030;-55
2024/02/03 12:20:43;;;;;;;2.10;0.60;;;;;;;;;;5035261;28;19935;-57
2024/02/03 12:23:08;;;;;;;1.60;0.70;;;;;;;;;;5034389;28;20033;-56
2024/02/03 12:25:33;;;;;;;2.70;0.70;;;;;;;;;;5031998;28;20032;-56
2024/02/03 12:27:58;;;;;;;3.27;0.60;;;;;;;;;;5035397;28;20021;-56
2024/02/03 12:30:24;;;;;;;2.50;0.67;;;;;;;;;;5036061;28;20024;-56
2024/02/03 12:32:49;;;;;;;1.97;0.67;;;;;;;;;;5038622;28;20082;-56
2024/02/03 12:35:14;;;;;;;2.30;0.73;;;;;;;;;;5030768;28;20037;-57
2024/02/03 12:37:40;;;;;;;4.82;1.00;;;;;;;;;;5028457;28;21341;-56
2024/02/03 12:40:09;;;;;;;4.07;0.90;;;;;;;;;;5027483;28;20018;-57
2024/02/03 12:42:34;;;;;;;3.38;1.15;;;;;;;;;;5017400;28;20026;-57
2024/02/03 12:45:01;;;;;;;2.30;0.60;;;;;;;;;;5023624;28;20013;-57
2024/02/03 12:47:26;;;;;;;1.90;0.60;;;;;;;;;;5028998;28;20393;-56
2024/02/03 12:49:51;;;;;;;2.80;0.63;;;;;;;;;;5016830;28;20087;-58
2024/02/03 12:52:17;;;;;;;1.65;0.50;;;;;;;;;;5022443;28;21764;-56
2024/02/03 12:54:42;;;;;;;0.88;0.50;;;;;;;;;;5027357;28;20439;-56
2024/02/03 12:57:07;;;;;;;1.73;0.53;;;;;;;;;;5032305;28;20021;-56
2024/02/03 12:59:32;;;;;;;1.03;0.40;;;;;;;;;;5035444;28;20557;-56
2024/02/03 13:01:57;;;;;;;1.88;0.40;;;;;;;;;;5028510;28;20037;-57
2024/02/03 13:04:22;;;;;;;1.02;0.40;;;;;;;;;;5026507;28;20064;-56
2024/02/03 13:06:47;;;;;;;1.53;0.50;;;;;;;;;;5030642;28;20017;-56
2024/02/03 13:09:13;;;;;;;2.75;0.90;;;;;;;;;;5028814;28;20061;-57
2024/02/03 13:11:38;;;;;;;1.55;0.50;;;;;;;;;;5031118;28;20492;-57
2024/02/03 13:14:03;;;;;;;2.10;0.50;;;;;;;;;;5031023;28;20100;-58
2024/02/03 13:16:30;;;;;;;1.60;0.50;;;;;;;;;;5029276;28;20077;-56
2024/02/03 13:18:55;;;;;;;;;;;;;;;;;;5031970;28;20037;-56
2024/02/03 13:21:20;;;;;;;1.45;0.50;;;;;;;;;;5034430;28;19913;-57
2024/02/03 13:23:45;;;;;;;0.67;0.40;;;;;;;;;;5028889;28;20111;-58
2024/02/03 13:26:10;;;;;;;0.85;0.40;;;;;;;;;;5036584;28;20033;-57
2024/02/03 13:28:36;;;;;;;1.97;0.50;;;;;;;;;;5019724;28;20701;-56
2024/02/03 13:31:01;;;;;;;1.92;0.55;;;;;;;;;;5025560;28;20022;-56
2024/02/03 13:33:26;;;;;;;1.50;0.60;;;;;;;;;;5030011;28;20429;-57
2024/02/03 13:35:53;;;;;;;1.95;0.50;;;;;;;;;;5033705;28;20025;-55
2024/02/03 13:38:19;;;;;;;1.17;0.50;;;;;;;;;;5025031;28;20021;-56
2024/02/03 13:40:44;;;;;;;1.20;0.40;;;;;;;;;;5016622;28;20137;-57
2024/02/03 13:43:09;;;;;;;1.93;0.60;;;;;;;;;;5029495;28;20497;-56
2024/02/03 13:45:34;;;;;;;4.90;1.67;;;;;;;;;;5027508;28;20017;-56
2024/02/03 13:47:59;;;;;;;1.33;0.50;;;;;;;;;;5041463;28;20035;-56
2024/02/03 13:50:25;;;;;;;2.15;0.65;;;;;;;;;;5030399;28;20048;-56
2024/02/03 13:52:50;;;;;;;2.70;0.52;;;;;;;;;;5032921;28;20018;-56
2024/02/03 13:55:15;;;;;;;2.17;0.53;;;;;;;;;;5032106;28;20060;-56
2024/02/03 13:57:40;;;;;;;2.40;0.60;;;;;;;;;;5031646;28;20091;-56
2024/02/03 14:00:06;;;;;;;2.23;0.70;;;;;;;;;;5031812;28;20361;-57
2024/02/03 14:02:32;;;;;;;3.35;0.75;;;;;;;;;;5031407;28;20021;-56
2024/02/03 14:04:57;;;;;;;3.42;0.50;;;;;;;;;;5031355;28;20028;-56
2024/02/03 14:07:22;;;;;;;1.75;0.50;;;;;;;;;;5031159;28;20033;-57
2024/02/03 14:09:47;;;;;;;2.33;0.70;;;;;;;;;;5030445;28;20026;-56
2024/02/03 14:12:12;;;;;;;1.52;0.50;;;;;;;;;;5028078;28;20029;-58
2024/02/03 14:14:37;;;;;;;2.40;0.77;;;;;;;;;;5020639;28;20098;-57
2024/02/03 14:17:03;;;;;;;2.03;0.70;;;;;;;;;;5032845;28;20539;-57
2024/02/03 14:19:28;;;;;;;2.77;0.80;;;;;;;;;;5028717;28;20068;-56
2024/02/03 14:21:53;;;;;;;1.67;0.50;;;;;;;;;;5023032;28;20048;-57
2024/02/03 14:24:18;;;;;;;2.43;0.73;;;;;;;;;;5031923;28;20029;-57
2024/02/03 14:26:44;;;;;;;2.70;0.90;;;;;;;;;;5030738;28;20033;-56
2024/02/03 14:29:09;;;;;;;2.10;0.60;;;;;;;;;;5025402;28;20451;-56
2024/02/03 14:31:34;;;;;;;1.77;0.60;;;;;;;;;;5037740;28;20098;-58